sensor_id;sensor_type;location;lat;lon;timestamp;P1;durP1;ratioP1;P2;durP2;ratioP2
7831;SDS011;3961;42.058;25.586;2023-03-19T00:00:54;18.83;;;10.40;;
7831;SDS011;3961;42.058;25.586;2023-03-19T00:03:19;19.37;;;11.20;;
7831;SDS011;3961;42.058;25.586;2023-03-19T00:05:51;16.67;;;10.27;;
7831;SDS011;3961;42.058;25.586;2023-03-19T00:08:17;16.50;;;10.13;;
7831;SDS011;3961;42.058;25.586;2023-03-19T00:10:43;19.00;;;10.87;;
7831;SDS011;3961;42.058;25.586;2023-03-19T00:13:08;17.80;;;10.60;;
7831;SDS011;3961;42.058;25.586;2023-03-19T00:15:34;18.10;;;10.63;;
7831;SDS011;3961;42.058;25.586;2023-03-19T00:18:00;16.93;;;10.87;;
7831;SDS011;3961;42.058;25.586;2023-03-19T00:20:26;16.50;;;10.70;;
7831;SDS011;3961;42.058;25.586;2023-03-19T00:22:51;18.83;;;10.43;;
7831;SDS011;3961;42.058;25.586;2023-03-19T00:25:16;18.63;;;10.40;;
7831;SDS011;3961;42.058;25.586;2023-03-19T00:27:42;20.47;;;10.13;;
7831;SDS011;3961;42.058;25.586;2023-03-19T00:30:08;15.23;;;9.63;;
7831;SDS011;3961;42.058;25.586;2023-03-19T00:32:35;17.57;;;9.67;;
7831;SDS011;3961;42.058;25.586;2023-03-19T00:35:01;20.57;;;8.87;;
7831;SDS011;3961;42.058;25.586;2023-03-19T00:37:27;18.33;;;10.03;;
7831;SDS011;3961;42.058;25.586;2023-03-19T00:39:53;18.07;;;10.13;;
7831;SDS011;3961;42.058;25.586;2023-03-19T00:42:18;17.77;;;10.73;;
7831;SDS011;3961;42.058;25.586;2023-03-19T00:44:44;20.30;;;10.97;;
7831;SDS011;3961;42.058;25.586;2023-03-19T00:47:09;15.37;;;10.67;;
7831;SDS011;3961;42.058;25.586;2023-03-19T00:49:35;17.90;;;10.40;;
7831;SDS011;3961;42.058;25.586;2023-03-19T00:52:00;17.53;;;11.33;;
7831;SDS011;3961;42.058;25.586;2023-03-19T00:54:26;17.73;;;11.83;;
7831;SDS011;3961;42.058;25.586;2023-03-19T00:56:51;18.97;;;10.90;;
7831;SDS011;3961;42.058;25.586;2023-03-19T00:59:17;20.53;;;11.30;;
7831;SDS011;3961;42.058;25.586;2023-03-19T01:01:42;19.33;;;10.97;;
7831;SDS011;3961;42.058;25.586;2023-03-19T01:04:08;18.63;;;11.13;;
7831;SDS011;3961;42.058;25.586;2023-03-19T01:06:35;20.30;;;11.13;;
7831;SDS011;3961;42.058;25.586;2023-03-19T01:09:00;25.63;;;11.77;;
7831;SDS011;3961;42.058;25.586;2023-03-19T01:11:26;19.23;;;10.63;;
7831;SDS011;3961;42.058;25.586;2023-03-19T01:13:52;20.40;;;12.03;;
7831;SDS011;3961;42.058;25.586;2023-03-19T01:16:17;25.77;;;11.00;;
7831;SDS011;3961;42.058;25.586;2023-03-19T01:18:43;23.33;;;10.73;;
7831;SDS011;3961;42.058;25.586;2023-03-19T01:21:08;19.13;;;11.07;;
7831;SDS011;3961;42.058;25.586;2023-03-19T01:23:34;20.93;;;10.30;;
7831;SDS011;3961;42.058;25.586;2023-03-19T01:26:00;20.63;;;10.73;;
7831;SDS011;3961;42.058;25.586;2023-03-19T01:28:25;18.03;;;10.57;;
7831;SDS011;3961;42.058;25.586;2023-03-19T01:30:51;18.33;;;10.43;;
7831;SDS011;3961;42.058;25.586;2023-03-19T01:33:17;18.37;;;10.47;;
7831;SDS011;3961;42.058;25.586;2023-03-19T01:35:45;17.87;;;10.80;;
7831;SDS011;3961;42.058;25.586;2023-03-19T01:38:12;18.60;;;10.73;;
7831;SDS011;3961;42.058;25.586;2023-03-19T01:40:42;13.47;;;9.47;;
7831;SDS011;3961;42.058;25.586;2023-03-19T01:43:17;23.00;;;10.30;;
7831;SDS011;3961;42.058;25.586;2023-03-19T01:45:48;14.77;;;9.13;;
7831;SDS011;3961;42.058;25.586;2023-03-19T01:48:18;17.80;;;9.80;;
7831;SDS011;3961;42.058;25.586;2023-03-19T01:50:50;15.53;;;9.83;;
7831;SDS011;3961;42.058;25.586;2023-03-19T01:53:20;17.17;;;9.80;;
7831;SDS011;3961;42.058;25.586;2023-03-19T01:55:56;16.63;;;10.10;;
7831;SDS011;3961;42.058;25.586;2023-03-19T01:58:28;17.13;;;9.73;;
7831;SDS011;3961;42.058;25.586;2023-03-19T02:00:54;14.37;;;9.73;;
7831;SDS011;3961;42.058;25.586;2023-03-19T02:03:21;16.13;;;9.67;;
7831;SDS011;3961;42.058;25.586;2023-03-19T02:05:48;19.57;;;10.00;;
7831;SDS011;3961;42.058;25.586;2023-03-19T02:08:16;14.00;;;8.73;;
7831;SDS011;3961;42.058;25.586;2023-03-19T02:10:45;16.50;;;9.37;;
7831;SDS011;3961;42.058;25.586;2023-03-19T02:13:12;14.00;;;9.47;;
7831;SDS011;3961;42.058;25.586;2023-03-19T02:15:38;14.70;;;8.93;;
7831;SDS011;3961;42.058;25.586;2023-03-19T02:18:04;14.70;;;9.43;;
7831;SDS011;3961;42.058;25.586;2023-03-19T02:20:34;17.87;;;9.93;;
7831;SDS011;3961;42.058;25.586;2023-03-19T02:28:15;18.00;;;9.13;;
7831;SDS011;3961;42.058;25.586;2023-03-19T02:30:43;15.80;;;9.53;;
7831;SDS011;3961;42.058;25.586;2023-03-19T02:33:13;15.73;;;9.30;;
7831;SDS011;3961;42.058;25.586;2023-03-19T02:35:42;15.87;;;9.67;;
7831;SDS011;3961;42.058;25.586;2023-03-19T02:38:13;17.33;;;9.70;;
7831;SDS011;3961;42.058;25.586;2023-03-19T02:40:44;16.87;;;9.53;;
7831;SDS011;3961;42.058;25.586;2023-03-19T02:43:16;17.67;;;9.33;;
7831;SDS011;3961;42.058;25.586;2023-03-19T02:45:41;22.57;;;11.20;;
7831;SDS011;3961;42.058;25.586;2023-03-19T02:48:07;18.57;;;10.23;;
7831;SDS011;3961;42.058;25.586;2023-03-19T02:50:32;18.33;;;9.87;;
7831;SDS011;3961;42.058;25.586;2023-03-19T02:52:58;21.13;;;11.30;;
7831;SDS011;3961;42.058;25.586;2023-03-19T02:55:23;18.93;;;9.80;;
7831;SDS011;3961;42.058;25.586;2023-03-19T02:57:49;19.90;;;10.13;;
7831;SDS011;3961;42.058;25.586;2023-03-19T03:00:15;15.57;;;10.27;;
7831;SDS011;3961;42.058;25.586;2023-03-19T03:02:45;19.97;;;11.03;;
7831;SDS011;3961;42.058;25.586;2023-03-19T03:05:11;15.70;;;9.93;;
7831;SDS011;3961;42.058;25.586;2023-03-19T03:07:37;19.00;;;10.57;;
7831;SDS011;3961;42.058;25.586;2023-03-19T03:10:04;18.67;;;10.73;;
7831;SDS011;3961;42.058;25.586;2023-03-19T03:12:31;18.63;;;10.43;;
7831;SDS011;3961;42.058;25.586;2023-03-19T03:14:56;16.23;;;9.40;;
7831;SDS011;3961;42.058;25.586;2023-03-19T03:17:22;17.27;;;9.47;;
7831;SDS011;3961;42.058;25.586;2023-03-19T03:19:48;18.87;;;10.10;;
7831;SDS011;3961;42.058;25.586;2023-03-19T03:22:14;17.77;;;9.27;;
7831;SDS011;3961;42.058;25.586;2023-03-19T03:24:39;17.23;;;9.30;;
7831;SDS011;3961;42.058;25.586;2023-03-19T03:27:05;15.73;;;9.50;;
7831;SDS011;3961;42.058;25.586;2023-03-19T03:29:30;16.53;;;9.40;;
7831;SDS011;3961;42.058;25.586;2023-03-19T03:31:56;17.07;;;9.77;;
7831;SDS011;3961;42.058;25.586;2023-03-19T03:34:21;16.80;;;9.50;;
7831;SDS011;3961;42.058;25.586;2023-03-19T03:36:47;14.47;;;8.80;;
7831;SDS011;3961;42.058;25.586;2023-03-19T03:39:13;16.47;;;10.30;;
7831;SDS011;3961;42.058;25.586;2023-03-19T03:41:39;14.60;;;9.50;;
7831;SDS011;3961;42.058;25.586;2023-03-19T03:44:05;14.53;;;9.30;;
7831;SDS011;3961;42.058;25.586;2023-03-19T03:46:30;16.70;;;9.50;;
7831;SDS011;3961;42.058;25.586;2023-03-19T03:48:56;17.50;;;10.03;;
7831;SDS011;3961;42.058;25.586;2023-03-19T03:51:21;16.53;;;8.50;;
7831;SDS011;3961;42.058;25.586;2023-03-19T03:53:47;17.20;;;9.53;;
7831;SDS011;3961;42.058;25.586;2023-03-19T03:56:13;12.73;;;8.83;;
7831;SDS011;3961;42.058;25.586;2023-03-19T03:58:39;13.23;;;8.33;;
7831;SDS011;3961;42.058;25.586;2023-03-19T04:01:04;17.33;;;8.27;;
7831;SDS011;3961;42.058;25.586;2023-03-19T04:03:31;13.60;;;8.43;;
7831;SDS011;3961;42.058;25.586;2023-03-19T04:05:58;15.37;;;8.30;;
7831;SDS011;3961;42.058;25.586;2023-03-19T04:08:23;13.37;;;7.50;;
7831;SDS011;3961;42.058;25.586;2023-03-19T04:10:49;16.67;;;7.70;;
7831;SDS011;3961;42.058;25.586;2023-03-19T04:13:14;13.67;;;7.50;;
7831;SDS011;3961;42.058;25.586;2023-03-19T04:15:41;13.73;;;7.90;;
7831;SDS011;3961;42.058;25.586;2023-03-19T04:18:07;12.83;;;7.43;;
7831;SDS011;3961;42.058;25.586;2023-03-19T04:20:33;15.63;;;8.17;;
7831;SDS011;3961;42.058;25.586;2023-03-19T04:22:58;13.73;;;7.17;;
7831;SDS011;3961;42.058;25.586;2023-03-19T04:25:24;12.77;;;7.27;;
7831;SDS011;3961;42.058;25.586;2023-03-19T04:27:50;12.00;;;7.23;;
7831;SDS011;3961;42.058;25.586;2023-03-19T04:30:16;10.27;;;7.00;;
7831;SDS011;3961;42.058;25.586;2023-03-19T04:32:43;10.73;;;7.17;;
7831;SDS011;3961;42.058;25.586;2023-03-19T04:35:08;10.77;;;7.10;;
7831;SDS011;3961;42.058;25.586;2023-03-19T04:37:34;12.70;;;7.30;;
7831;SDS011;3961;42.058;25.586;2023-03-19T04:39:59;15.47;;;8.87;;
7831;SDS011;3961;42.058;25.586;2023-03-19T04:42:25;11.57;;;7.73;;
7831;SDS011;3961;42.058;25.586;2023-03-19T04:44:50;13.17;;;6.70;;
7831;SDS011;3961;42.058;25.586;2023-03-19T04:47:16;10.40;;;7.20;;
7831;SDS011;3961;42.058;25.586;2023-03-19T04:49:42;10.23;;;6.33;;
7831;SDS011;3961;42.058;25.586;2023-03-19T04:52:08;11.33;;;6.50;;
7831;SDS011;3961;42.058;25.586;2023-03-19T04:54:33;10.87;;;6.43;;
7831;SDS011;3961;42.058;25.586;2023-03-19T04:56:59;9.90;;;6.23;;
7831;SDS011;3961;42.058;25.586;2023-03-19T04:59:25;8.33;;;5.73;;
7831;SDS011;3961;42.058;25.586;2023-03-19T05:01:51;12.87;;;6.90;;
7831;SDS011;3961;42.058;25.586;2023-03-19T05:04:16;12.77;;;7.20;;
7831;SDS011;3961;42.058;25.586;2023-03-19T05:06:42;11.67;;;6.97;;
7831;SDS011;3961;42.058;25.586;2023-03-19T05:09:08;9.67;;;6.97;;
7831;SDS011;3961;42.058;25.586;2023-03-19T05:11:34;11.17;;;6.97;;
7831;SDS011;3961;42.058;25.586;2023-03-19T05:13:59;13.30;;;7.80;;
7831;SDS011;3961;42.058;25.586;2023-03-19T05:16:25;14.87;;;7.17;;
7831;SDS011;3961;42.058;25.586;2023-03-19T05:18:51;10.63;;;7.40;;
7831;SDS011;3961;42.058;25.586;2023-03-19T05:21:17;13.27;;;8.97;;
7831;SDS011;3961;42.058;25.586;2023-03-19T05:23:42;12.77;;;8.03;;
7831;SDS011;3961;42.058;25.586;2023-03-19T05:26:08;16.87;;;8.20;;
7831;SDS011;3961;42.058;25.586;2023-03-19T05:28:34;11.93;;;8.07;;
7831;SDS011;3961;42.058;25.586;2023-03-19T05:30:59;16.10;;;10.13;;
7831;SDS011;3961;42.058;25.586;2023-03-19T05:33:25;15.37;;;9.53;;
7831;SDS011;3961;42.058;25.586;2023-03-19T05:35:51;15.23;;;9.00;;
7831;SDS011;3961;42.058;25.586;2023-03-19T05:38:17;17.17;;;9.37;;
7831;SDS011;3961;42.058;25.586;2023-03-19T05:40:43;21.67;;;11.83;;
7831;SDS011;3961;42.058;25.586;2023-03-19T05:43:09;17.60;;;9.83;;
7831;SDS011;3961;42.058;25.586;2023-03-19T05:45:35;15.80;;;7.77;;
7831;SDS011;3961;42.058;25.586;2023-03-19T05:48:02;15.97;;;8.37;;
7831;SDS011;3961;42.058;25.586;2023-03-19T05:50:28;11.03;;;6.70;;
7831;SDS011;3961;42.058;25.586;2023-03-19T05:52:54;15.73;;;9.23;;
7831;SDS011;3961;42.058;25.586;2023-03-19T05:55:19;14.03;;;8.13;;
7831;SDS011;3961;42.058;25.586;2023-03-19T05:57:45;14.27;;;8.03;;
7831;SDS011;3961;42.058;25.586;2023-03-19T06:00:11;14.03;;;7.13;;
7831;SDS011;3961;42.058;25.586;2023-03-19T06:02:37;12.63;;;6.77;;
7831;SDS011;3961;42.058;25.586;2023-03-19T06:05:03;11.63;;;6.40;;
7831;SDS011;3961;42.058;25.586;2023-03-19T06:07:30;9.90;;;6.03;;
7831;SDS011;3961;42.058;25.586;2023-03-19T06:09:56;13.97;;;6.97;;
7831;SDS011;3961;42.058;25.586;2023-03-19T06:12:21;10.13;;;6.70;;
7831;SDS011;3961;42.058;25.586;2023-03-19T06:14:48;8.53;;;5.47;;
7831;SDS011;3961;42.058;25.586;2023-03-19T06:17:13;7.87;;;5.33;;
7831;SDS011;3961;42.058;25.586;2023-03-19T06:19:39;12.13;;;6.37;;
7831;SDS011;3961;42.058;25.586;2023-03-19T06:22:05;10.97;;;5.80;;
7831;SDS011;3961;42.058;25.586;2023-03-19T06:24:30;7.27;;;4.87;;
7831;SDS011;3961;42.058;25.586;2023-03-19T06:26:56;11.37;;;6.93;;
7831;SDS011;3961;42.058;25.586;2023-03-19T06:29:21;11.13;;;6.40;;
7831;SDS011;3961;42.058;25.586;2023-03-19T06:31:47;7.63;;;5.40;;
7831;SDS011;3961;42.058;25.586;2023-03-19T06:34:12;9.13;;;5.67;;
7831;SDS011;3961;42.058;25.586;2023-03-19T06:36:38;9.50;;;5.90;;
7831;SDS011;3961;42.058;25.586;2023-03-19T06:39:03;11.30;;;5.83;;
7831;SDS011;3961;42.058;25.586;2023-03-19T06:41:29;8.83;;;5.57;;
7831;SDS011;3961;42.058;25.586;2023-03-19T06:43:54;10.77;;;6.07;;
7831;SDS011;3961;42.058;25.586;2023-03-19T06:46:20;8.10;;;5.13;;
7831;SDS011;3961;42.058;25.586;2023-03-19T06:48:45;6.67;;;4.90;;
7831;SDS011;3961;42.058;25.586;2023-03-19T06:51:11;11.23;;;5.63;;
7831;SDS011;3961;42.058;25.586;2023-03-19T06:53:36;10.10;;;6.30;;
7831;SDS011;3961;42.058;25.586;2023-03-19T06:56:02;8.13;;;5.50;;
7831;SDS011;3961;42.058;25.586;2023-03-19T06:58:28;12.47;;;5.07;;
7831;SDS011;3961;42.058;25.586;2023-03-19T07:00:53;8.60;;;5.20;;
7831;SDS011;3961;42.058;25.586;2023-03-19T07:03:19;9.23;;;5.73;;
7831;SDS011;3961;42.058;25.586;2023-03-19T07:05:47;6.60;;;4.73;;
7831;SDS011;3961;42.058;25.586;2023-03-19T07:08:14;8.73;;;4.20;;
7831;SDS011;3961;42.058;25.586;2023-03-19T07:10:40;10.90;;;4.40;;
7831;SDS011;3961;42.058;25.586;2023-03-19T07:13:05;7.87;;;4.93;;
7831;SDS011;3961;42.058;25.586;2023-03-19T07:15:31;7.17;;;4.67;;
7831;SDS011;3961;42.058;25.586;2023-03-19T07:17:57;8.07;;;5.20;;
7831;SDS011;3961;42.058;25.586;2023-03-19T07:20:23;7.33;;;4.90;;
7831;SDS011;3961;42.058;25.586;2023-03-19T07:22:52;7.03;;;4.60;;
7831;SDS011;3961;42.058;25.586;2023-03-19T07:25:17;9.83;;;4.37;;
7831;SDS011;3961;42.058;25.586;2023-03-19T07:27:43;10.30;;;4.73;;
7831;SDS011;3961;42.058;25.586;2023-03-19T07:30:10;13.70;;;6.63;;
7831;SDS011;3961;42.058;25.586;2023-03-19T07:32:36;7.50;;;4.80;;
7831;SDS011;3961;42.058;25.586;2023-03-19T07:35:03;11.13;;;6.27;;
7831;SDS011;3961;42.058;25.586;2023-03-19T07:37:32;7.97;;;5.40;;
7831;SDS011;3961;42.058;25.586;2023-03-19T07:39:58;7.07;;;4.80;;
7831;SDS011;3961;42.058;25.586;2023-03-19T07:42:23;6.50;;;4.53;;
7831;SDS011;3961;42.058;25.586;2023-03-19T07:44:49;11.30;;;5.83;;
7831;SDS011;3961;42.058;25.586;2023-03-19T07:47:15;12.90;;;4.63;;
7831;SDS011;3961;42.058;25.586;2023-03-19T07:49:40;8.87;;;4.37;;
7831;SDS011;3961;42.058;25.586;2023-03-19T07:52:06;11.83;;;4.77;;
7831;SDS011;3961;42.058;25.586;2023-03-19T07:54:31;8.57;;;5.63;;
7831;SDS011;3961;42.058;25.586;2023-03-19T07:56:57;8.87;;;4.33;;
7831;SDS011;3961;42.058;25.586;2023-03-19T07:59:22;8.00;;;5.17;;
7831;SDS011;3961;42.058;25.586;2023-03-19T08:01:48;7.57;;;5.03;;
7831;SDS011;3961;42.058;25.586;2023-03-19T08:04:13;7.70;;;4.80;;
7831;SDS011;3961;42.058;25.586;2023-03-19T08:06:39;6.67;;;4.97;;
7831;SDS011;3961;42.058;25.586;2023-03-19T08:09:05;8.03;;;4.43;;
7831;SDS011;3961;42.058;25.586;2023-03-19T08:11:31;7.60;;;4.40;;
7831;SDS011;3961;42.058;25.586;2023-03-19T08:13:56;7.53;;;4.63;;
7831;SDS011;3961;42.058;25.586;2023-03-19T08:16:22;7.93;;;4.17;;
7831;SDS011;3961;42.058;25.586;2023-03-19T08:18:47;9.33;;;5.27;;
7831;SDS011;3961;42.058;25.586;2023-03-19T08:21:13;11.27;;;6.50;;
7831;SDS011;3961;42.058;25.586;2023-03-19T08:23:38;8.30;;;3.73;;
7831;SDS011;3961;42.058;25.586;2023-03-19T08:26:04;7.23;;;4.20;;
7831;SDS011;3961;42.058;25.586;2023-03-19T08:28:30;6.57;;;4.50;;
7831;SDS011;3961;42.058;25.586;2023-03-19T08:30:56;6.13;;;3.80;;
7831;SDS011;3961;42.058;25.586;2023-03-19T08:33:21;8.13;;;4.40;;
7831;SDS011;3961;42.058;25.586;2023-03-19T08:35:47;7.77;;;4.07;;
7831;SDS011;3961;42.058;25.586;2023-03-19T08:38:13;9.23;;;4.17;;
7831;SDS011;3961;42.058;25.586;2023-03-19T08:40:38;7.70;;;4.50;;
7831;SDS011;3961;42.058;25.586;2023-03-19T08:43:04;6.43;;;3.80;;
7831;SDS011;3961;42.058;25.586;2023-03-19T08:45:30;8.40;;;4.00;;
7831;SDS011;3961;42.058;25.586;2023-03-19T08:47:56;6.40;;;3.37;;
7831;SDS011;3961;42.058;25.586;2023-03-19T08:50:22;6.20;;;3.30;;
7831;SDS011;3961;42.058;25.586;2023-03-19T08:52:48;5.07;;;3.80;;
7831;SDS011;3961;42.058;25.586;2023-03-19T08:55:14;6.03;;;3.40;;
7831;SDS011;3961;42.058;25.586;2023-03-19T08:57:40;7.57;;;3.13;;
7831;SDS011;3961;42.058;25.586;2023-03-19T09:00:06;5.60;;;2.90;;
7831;SDS011;3961;42.058;25.586;2023-03-19T09:02:32;9.20;;;3.33;;
7831;SDS011;3961;42.058;25.586;2023-03-19T09:04:57;4.63;;;3.07;;
7831;SDS011;3961;42.058;25.586;2023-03-19T09:07:23;8.43;;;4.00;;
7831;SDS011;3961;42.058;25.586;2023-03-19T09:09:48;5.93;;;3.60;;
7831;SDS011;3961;42.058;25.586;2023-03-19T09:12:14;5.63;;;3.23;;
7831;SDS011;3961;42.058;25.586;2023-03-19T09:14:41;5.70;;;3.43;;
7831;SDS011;3961;42.058;25.586;2023-03-19T09:17:08;8.40;;;3.90;;
7831;SDS011;3961;42.058;25.586;2023-03-19T09:19:34;4.87;;;3.70;;
7831;SDS011;3961;42.058;25.586;2023-03-19T09:22:01;3.20;;;2.87;;
7831;SDS011;3961;42.058;25.586;2023-03-19T09:24:27;4.10;;;3.43;;
7831;SDS011;3961;42.058;25.586;2023-03-19T09:26:53;4.37;;;3.10;;
7831;SDS011;3961;42.058;25.586;2023-03-19T09:29:18;4.90;;;3.10;;
7831;SDS011;3961;42.058;25.586;2023-03-19T09:31:44;5.83;;;3.33;;
7831;SDS011;3961;42.058;25.586;2023-03-19T09:34:10;5.23;;;3.50;;
7831;SDS011;3961;42.058;25.586;2023-03-19T09:36:38;3.60;;;2.60;;
7831;SDS011;3961;42.058;25.586;2023-03-19T09:39:04;6.70;;;2.87;;
7831;SDS011;3961;42.058;25.586;2023-03-19T09:41:36;10.80;;;2.90;;
7831;SDS011;3961;42.058;25.586;2023-03-19T09:44:18;2.67;;;2.30;;
7831;SDS011;3961;42.058;25.586;2023-03-19T09:47:01;6.73;;;3.20;;
7831;SDS011;3961;42.058;25.586;2023-03-19T09:49:33;4.53;;;3.40;;
7831;SDS011;3961;42.058;25.586;2023-03-19T09:54:48;6.80;;;3.43;;
7831;SDS011;3961;42.058;25.586;2023-03-19T09:57:18;5.50;;;2.90;;
7831;SDS011;3961;42.058;25.586;2023-03-19T09:59:45;5.43;;;3.13;;
7831;SDS011;3961;42.058;25.586;2023-03-19T10:04:55;4.47;;;2.40;;
7831;SDS011;3961;42.058;25.586;2023-03-19T10:10:20;4.23;;;2.50;;
7831;SDS011;3961;42.058;25.586;2023-03-19T10:13:23;4.60;;;2.50;;
7831;SDS011;3961;42.058;25.586;2023-03-19T10:15:50;2.90;;;2.30;;
7831;SDS011;3961;42.058;25.586;2023-03-19T10:18:23;3.17;;;2.30;;
7831;SDS011;3961;42.058;25.586;2023-03-19T10:23:23;4.77;;;2.57;;
7831;SDS011;3961;42.058;25.586;2023-03-19T10:26:04;3.63;;;2.50;;
7831;SDS011;3961;42.058;25.586;2023-03-19T10:28:35;5.40;;;2.63;;
7831;SDS011;3961;42.058;25.586;2023-03-19T10:36:43;6.67;;;3.47;;
7831;SDS011;3961;42.058;25.586;2023-03-19T10:39:08;4.43;;;3.23;;
7831;SDS011;3961;42.058;25.586;2023-03-19T10:41:52;3.63;;;2.90;;
7831;SDS011;3961;42.058;25.586;2023-03-19T10:44:32;4.57;;;2.37;;
7831;SDS011;3961;42.058;25.586;2023-03-19T10:47:11;3.07;;;2.40;;
7831;SDS011;3961;42.058;25.586;2023-03-19T10:49:38;2.83;;;2.20;;
7831;SDS011;3961;42.058;25.586;2023-03-19T10:52:05;3.97;;;2.83;;
7831;SDS011;3961;42.058;25.586;2023-03-19T10:54:41;3.90;;;3.17;;
7831;SDS011;3961;42.058;25.586;2023-03-19T10:57:18;3.90;;;2.60;;
7831;SDS011;3961;42.058;25.586;2023-03-19T10:59:51;4.83;;;2.67;;
7831;SDS011;3961;42.058;25.586;2023-03-19T11:02:18;5.23;;;2.67;;
7831;SDS011;3961;42.058;25.586;2023-03-19T11:04:44;3.17;;;2.43;;
7831;SDS011;3961;42.058;25.586;2023-03-19T11:07:11;2.80;;;2.50;;
7831;SDS011;3961;42.058;25.586;2023-03-19T11:09:39;3.70;;;2.70;;
7831;SDS011;3961;42.058;25.586;2023-03-19T11:12:18;3.33;;;2.67;;
7831;SDS011;3961;42.058;25.586;2023-03-19T11:14:56;4.43;;;2.50;;
7831;SDS011;3961;42.058;25.586;2023-03-19T11:19:52;4.80;;;2.73;;
7831;SDS011;3961;42.058;25.586;2023-03-19T11:25:15;3.60;;;2.30;;
7831;SDS011;3961;42.058;25.586;2023-03-19T11:27:44;2.53;;;2.23;;
7831;SDS011;3961;42.058;25.586;2023-03-19T11:30:21;2.73;;;2.27;;
7831;SDS011;3961;42.058;25.586;2023-03-19T11:35:48;6.07;;;2.37;;
7831;SDS011;3961;42.058;25.586;2023-03-19T11:38:24;4.00;;;3.00;;
7831;SDS011;3961;42.058;25.586;2023-03-19T11:49:13;2.80;;;2.50;;
7831;SDS011;3961;42.058;25.586;2023-03-19T11:51:56;2.27;;;2.00;;
7831;SDS011;3961;42.058;25.586;2023-03-19T12:05:23;2.60;;;2.10;;
7831;SDS011;3961;42.058;25.586;2023-03-19T12:08:07;3.33;;;2.30;;
7831;SDS011;3961;42.058;25.586;2023-03-19T12:13:26;3.00;;;2.20;;
7831;SDS011;3961;42.058;25.586;2023-03-19T12:16:16;3.23;;;2.00;;
7831;SDS011;3961;42.058;25.586;2023-03-19T12:32:08;4.07;;;2.57;;
7831;SDS011;3961;42.058;25.586;2023-03-19T12:34:44;2.80;;;2.30;;
7831;SDS011;3961;42.058;25.586;2023-03-19T12:37:17;3.13;;;1.90;;
7831;SDS011;3961;42.058;25.586;2023-03-19T12:42:46;2.10;;;1.90;;
7831;SDS011;3961;42.058;25.586;2023-03-19T12:45:22;1.90;;;1.70;;
7831;SDS011;3961;42.058;25.586;2023-03-19T12:47:57;2.33;;;1.80;;
7831;SDS011;3961;42.058;25.586;2023-03-19T12:50:28;3.07;;;2.07;;
7831;SDS011;3961;42.058;25.586;2023-03-19T12:52:56;2.20;;;1.93;;
7831;SDS011;3961;42.058;25.586;2023-03-19T12:55:30;3.43;;;2.33;;
7831;SDS011;3961;42.058;25.586;2023-03-19T13:01:19;2.70;;;2.10;;
7831;SDS011;3961;42.058;25.586;2023-03-19T13:03:54;2.27;;;2.07;;
7831;SDS011;3961;42.058;25.586;2023-03-19T13:06:29;2.33;;;2.10;;
7831;SDS011;3961;42.058;25.586;2023-03-19T13:09:07;2.20;;;1.87;;
7831;SDS011;3961;42.058;25.586;2023-03-19T13:11:54;3.40;;;2.30;;
7831;SDS011;3961;42.058;25.586;2023-03-19T13:23:36;2.70;;;1.80;;
7831;SDS011;3961;42.058;25.586;2023-03-19T13:26:06;2.23;;;1.97;;
7831;SDS011;3961;42.058;25.586;2023-03-19T13:28:37;2.70;;;1.80;;
7831;SDS011;3961;42.058;25.586;2023-03-19T13:31:19;2.20;;;2.00;;
7831;SDS011;3961;42.058;25.586;2023-03-19T13:34:00;2.30;;;1.97;;
7831;SDS011;3961;42.058;25.586;2023-03-19T13:36:29;2.80;;;1.90;;
7831;SDS011;3961;42.058;25.586;2023-03-19T13:39:12;4.43;;;2.37;;
7831;SDS011;3961;42.058;25.586;2023-03-19T13:46:54;3.13;;;2.50;;
7831;SDS011;3961;42.058;25.586;2023-03-19T13:49:33;3.20;;;2.70;;
7831;SDS011;3961;42.058;25.586;2023-03-19T13:52:00;3.63;;;2.40;;
7831;SDS011;3961;42.058;25.586;2023-03-19T13:54:46;2.93;;;2.60;;
7831;SDS011;3961;42.058;25.586;2023-03-19T13:57:18;2.80;;;2.50;;
7831;SDS011;3961;42.058;25.586;2023-03-19T13:59:47;3.20;;;2.83;;
7831;SDS011;3961;42.058;25.586;2023-03-19T14:04:49;2.20;;;2.00;;
7831;SDS011;3961;42.058;25.586;2023-03-19T14:07:21;3.93;;;2.20;;
7831;SDS011;3961;42.058;25.586;2023-03-19T14:12:31;10.10;;;2.10;;
7831;SDS011;3961;42.058;25.586;2023-03-19T14:17:33;2.93;;;2.20;;
7831;SDS011;3961;42.058;25.586;2023-03-19T14:25:54;6.33;;;2.70;;
7831;SDS011;3961;42.058;25.586;2023-03-19T14:28:32;5.77;;;3.40;;
7831;SDS011;3961;42.058;25.586;2023-03-19T14:31:02;3.47;;;2.37;;
7831;SDS011;3961;42.058;25.586;2023-03-19T14:33:41;2.47;;;2.10;;
7831;SDS011;3961;42.058;25.586;2023-03-19T14:36:28;4.03;;;2.40;;
7831;SDS011;3961;42.058;25.586;2023-03-19T14:39:02;2.30;;;2.10;;
7831;SDS011;3961;42.058;25.586;2023-03-19T14:41:38;2.70;;;2.20;;
7831;SDS011;3961;42.058;25.586;2023-03-19T14:44:12;5.47;;;2.97;;
7831;SDS011;3961;42.058;25.586;2023-03-19T14:50:09;4.53;;;2.70;;
7831;SDS011;3961;42.058;25.586;2023-03-19T14:55:35;3.77;;;3.10;;
7831;SDS011;3961;42.058;25.586;2023-03-19T14:58:02;4.77;;;2.73;;
7831;SDS011;3961;42.058;25.586;2023-03-19T15:00:29;7.60;;;4.77;;
7831;SDS011;3961;42.058;25.586;2023-03-19T15:03:18;4.90;;;4.10;;
7831;SDS011;3961;42.058;25.586;2023-03-19T15:05:45;5.53;;;3.63;;
7831;SDS011;3961;42.058;25.586;2023-03-19T15:08:16;4.13;;;2.67;;
7831;SDS011;3961;42.058;25.586;2023-03-19T15:19:14;4.03;;;2.77;;
7831;SDS011;3961;42.058;25.586;2023-03-19T15:21:42;4.60;;;3.10;;
7831;SDS011;3961;42.058;25.586;2023-03-19T15:24:12;6.17;;;2.97;;
7831;SDS011;3961;42.058;25.586;2023-03-19T15:26:39;7.43;;;2.80;;
7831;SDS011;3961;42.058;25.586;2023-03-19T15:29:05;5.30;;;3.33;;
7831;SDS011;3961;42.058;25.586;2023-03-19T15:31:43;3.80;;;2.87;;
7831;SDS011;3961;42.058;25.586;2023-03-19T15:34:16;3.57;;;2.87;;
7831;SDS011;3961;42.058;25.586;2023-03-19T15:36:52;4.10;;;2.77;;
7831;SDS011;3961;42.058;25.586;2023-03-19T15:39:31;4.57;;;2.57;;
7831;SDS011;3961;42.058;25.586;2023-03-19T15:42:01;5.33;;;2.90;;
7831;SDS011;3961;42.058;25.586;2023-03-19T15:46:54;4.10;;;3.40;;
7831;SDS011;3961;42.058;25.586;2023-03-19T15:49:24;5.77;;;3.53;;
7831;SDS011;3961;42.058;25.586;2023-03-19T15:51:55;5.27;;;3.37;;
7831;SDS011;3961;42.058;25.586;2023-03-19T15:54:25;3.87;;;2.90;;
7831;SDS011;3961;42.058;25.586;2023-03-19T15:56:51;4.70;;;3.53;;
7831;SDS011;3961;42.058;25.586;2023-03-19T15:59:18;4.77;;;2.83;;
7831;SDS011;3961;42.058;25.586;2023-03-19T16:01:46;7.93;;;3.50;;
7831;SDS011;3961;42.058;25.586;2023-03-19T16:04:16;4.40;;;3.17;;
7831;SDS011;3961;42.058;25.586;2023-03-19T16:06:46;6.00;;;3.30;;
7831;SDS011;3961;42.058;25.586;2023-03-19T16:11:50;5.97;;;3.13;;
7831;SDS011;3961;42.058;25.586;2023-03-19T16:14:21;5.97;;;3.70;;
7831;SDS011;3961;42.058;25.586;2023-03-19T16:16:50;7.23;;;3.80;;
7831;SDS011;3961;42.058;25.586;2023-03-19T16:19:26;9.27;;;4.00;;
7831;SDS011;3961;42.058;25.586;2023-03-19T16:21:52;6.50;;;3.60;;
7831;SDS011;3961;42.058;25.586;2023-03-19T16:24:26;6.10;;;3.53;;
7831;SDS011;3961;42.058;25.586;2023-03-19T16:26:57;6.83;;;4.17;;
7831;SDS011;3961;42.058;25.586;2023-03-19T16:29:31;10.03;;;5.03;;
7831;SDS011;3961;42.058;25.586;2023-03-19T16:32:06;5.47;;;3.70;;
7831;SDS011;3961;42.058;25.586;2023-03-19T16:34:49;5.33;;;3.43;;
7831;SDS011;3961;42.058;25.586;2023-03-19T16:45:27;5.43;;;3.73;;
7831;SDS011;3961;42.058;25.586;2023-03-19T16:47:58;7.23;;;4.07;;
7831;SDS011;3961;42.058;25.586;2023-03-19T16:50:28;10.13;;;5.20;;
7831;SDS011;3961;42.058;25.586;2023-03-19T16:52:57;7.80;;;4.23;;
7831;SDS011;3961;42.058;25.586;2023-03-19T16:55:25;8.70;;;4.73;;
7831;SDS011;3961;42.058;25.586;2023-03-19T16:57:56;8.53;;;4.73;;
7831;SDS011;3961;42.058;25.586;2023-03-19T17:00:25;7.37;;;5.27;;
7831;SDS011;3961;42.058;25.586;2023-03-19T17:02:52;11.13;;;6.10;;
7831;SDS011;3961;42.058;25.586;2023-03-19T17:05:20;13.30;;;6.80;;
7831;SDS011;3961;42.058;25.586;2023-03-19T17:07:46;11.77;;;6.07;;